sensor_id;sensor_type;location;lat;lon;timestamp;P1;durP1;ratioP1;P2;durP2;ratioP2
962;SDS011;469;48.770;9.176;2022-08-19T00:01:55;25.90;;;13.32;;
962;SDS011;469;48.770;9.176;2022-08-19T00:04:25;21.98;;;13.77;;
962;SDS011;469;48.770;9.176;2022-08-19T00:06:53;25.75;;;14.57;;
962;SDS011;469;48.770;9.176;2022-08-19T00:09:21;21.00;;;14.13;;
962;SDS011;469;48.770;9.176;2022-08-19T00:11:48;19.10;;;12.30;;
962;SDS011;469;48.770;9.176;2022-08-19T00:14:16;22.98;;;12.38;;
962;SDS011;469;48.770;9.176;2022-08-19T00:16:44;22.23;;;12.80;;
962;SDS011;469;48.770;9.176;2022-08-19T00:19:12;25.27;;;12.95;;
962;SDS011;469;48.770;9.176;2022-08-19T00:21:40;21.48;;;12.50;;
962;SDS011;469;48.770;9.176;2022-08-19T00:24:08;21.48;;;13.30;;
962;SDS011;469;48.770;9.176;2022-08-19T00:26:36;24.63;;;13.88;;
962;SDS011;469;48.770;9.176;2022-08-19T00:29:04;25.67;;;14.15;;
962;SDS011;469;48.770;9.176;2022-08-19T00:31:31;25.90;;;13.85;;
962;SDS011;469;48.770;9.176;2022-08-19T00:33:59;25.63;;;13.80;;
962;SDS011;469;48.770;9.176;2022-08-19T00:36:26;22.85;;;13.63;;
962;SDS011;469;48.770;9.176;2022-08-19T00:38:55;19.02;;;13.38;;
962;SDS011;469;48.770;9.176;2022-08-19T00:41:23;23.45;;;14.30;;
962;SDS011;469;48.770;9.176;2022-08-19T00:43:57;21.45;;;13.45;;
962;SDS011;469;48.770;9.176;2022-08-19T00:46:24;23.55;;;13.82;;
962;SDS011;469;48.770;9.176;2022-08-19T00:48:51;21.42;;;13.40;;
962;SDS011;469;48.770;9.176;2022-08-19T00:51:19;24.10;;;14.18;;
962;SDS011;469;48.770;9.176;2022-08-19T00:53:47;21.60;;;13.70;;
962;SDS011;469;48.770;9.176;2022-08-19T00:56:15;22.30;;;13.13;;
962;SDS011;469;48.770;9.176;2022-08-19T00:58:43;24.10;;;14.32;;
962;SDS011;469;48.770;9.176;2022-08-19T01:01:10;23.80;;;13.75;;
962;SDS011;469;48.770;9.176;2022-08-19T01:03:39;21.17;;;12.85;;
962;SDS011;469;48.770;9.176;2022-08-19T01:06:06;20.50;;;13.77;;
962;SDS011;469;48.770;9.176;2022-08-19T01:08:33;23.52;;;13.00;;
962;SDS011;469;48.770;9.176;2022-08-19T01:11:00;24.20;;;14.25;;
962;SDS011;469;48.770;9.176;2022-08-19T01:13:29;21.27;;;12.82;;
962;SDS011;469;48.770;9.176;2022-08-19T01:15:57;22.98;;;13.27;;
962;SDS011;469;48.770;9.176;2022-08-19T01:18:27;23.50;;;14.65;;
962;SDS011;469;48.770;9.176;2022-08-19T01:20:55;23.73;;;15.00;;
962;SDS011;469;48.770;9.176;2022-08-19T01:23:24;27.88;;;13.98;;
962;SDS011;469;48.770;9.176;2022-08-19T01:26:08;24.85;;;14.60;;
962;SDS011;469;48.770;9.176;2022-08-19T01:28:35;20.73;;;13.95;;
962;SDS011;469;48.770;9.176;2022-08-19T01:31:03;21.92;;;14.52;;
962;SDS011;469;48.770;9.176;2022-08-19T01:33:30;23.90;;;13.48;;
962;SDS011;469;48.770;9.176;2022-08-19T01:36:03;21.80;;;13.50;;
962;SDS011;469;48.770;9.176;2022-08-19T01:38:34;22.52;;;14.18;;
962;SDS011;469;48.770;9.176;2022-08-19T01:41:01;21.73;;;14.18;;
962;SDS011;469;48.770;9.176;2022-08-19T01:43:28;21.10;;;12.77;;
962;SDS011;469;48.770;9.176;2022-08-19T01:45:55;23.70;;;14.75;;
962;SDS011;469;48.770;9.176;2022-08-19T01:48:22;24.55;;;14.15;;
962;SDS011;469;48.770;9.176;2022-08-19T01:50:49;23.38;;;14.48;;
962;SDS011;469;48.770;9.176;2022-08-19T01:53:16;24.15;;;13.57;;
962;SDS011;469;48.770;9.176;2022-08-19T01:55:45;21.77;;;14.68;;
962;SDS011;469;48.770;9.176;2022-08-19T01:58:14;23.50;;;14.82;;
962;SDS011;469;48.770;9.176;2022-08-19T02:00:43;30.02;;;16.45;;
962;SDS011;469;48.770;9.176;2022-08-19T02:03:11;23.17;;;14.85;;
962;SDS011;469;48.770;9.176;2022-08-19T02:05:38;23.60;;;14.15;;
962;SDS011;469;48.770;9.176;2022-08-19T02:08:06;25.10;;;15.05;;
962;SDS011;469;48.770;9.176;2022-08-19T02:10:33;21.45;;;14.75;;
962;SDS011;469;48.770;9.176;2022-08-19T02:13:01;25.63;;;15.32;;
962;SDS011;469;48.770;9.176;2022-08-19T02:15:29;23.55;;;14.75;;
962;SDS011;469;48.770;9.176;2022-08-19T02:17:57;23.92;;;15.00;;
962;SDS011;469;48.770;9.176;2022-08-19T02:20:24;27.55;;;16.15;;
962;SDS011;469;48.770;9.176;2022-08-19T02:22:51;25.75;;;14.95;;
962;SDS011;469;48.770;9.176;2022-08-19T02:25:18;28.88;;;16.98;;
962;SDS011;469;48.770;9.176;2022-08-19T02:27:45;27.35;;;15.43;;
962;SDS011;469;48.770;9.176;2022-08-19T02:30:15;26.27;;;16.38;;
962;SDS011;469;48.770;9.176;2022-08-19T02:32:42;27.33;;;16.88;;
962;SDS011;469;48.770;9.176;2022-08-19T02:35:09;29.77;;;16.52;;
962;SDS011;469;48.770;9.176;2022-08-19T02:37:37;28.35;;;17.08;;
962;SDS011;469;48.770;9.176;2022-08-19T02:40:21;28.83;;;17.55;;
962;SDS011;469;48.770;9.176;2022-08-19T02:42:48;29.60;;;18.33;;
962;SDS011;469;48.770;9.176;2022-08-19T02:45:17;30.50;;;19.20;;
962;SDS011;469;48.770;9.176;2022-08-19T02:47:44;29.30;;;18.00;;
962;SDS011;469;48.770;9.176;2022-08-19T02:50:11;32.85;;;17.85;;
962;SDS011;469;48.770;9.176;2022-08-19T02:52:39;29.77;;;18.05;;
962;SDS011;469;48.770;9.176;2022-08-19T02:55:07;33.92;;;19.63;;
962;SDS011;469;48.770;9.176;2022-08-19T02:57:34;30.48;;;18.30;;
962;SDS011;469;48.770;9.176;2022-08-19T03:00:03;32.35;;;18.33;;
962;SDS011;469;48.770;9.176;2022-08-19T03:02:31;36.42;;;18.55;;
962;SDS011;469;48.770;9.176;2022-08-19T03:04:58;36.35;;;20.25;;
962;SDS011;469;48.770;9.176;2022-08-19T03:07:26;30.95;;;18.90;;
962;SDS011;469;48.770;9.176;2022-08-19T03:09:53;35.38;;;18.85;;
962;SDS011;469;48.770;9.176;2022-08-19T03:12:20;33.80;;;19.52;;
962;SDS011;469;48.770;9.176;2022-08-19T03:14:47;33.13;;;19.73;;
962;SDS011;469;48.770;9.176;2022-08-19T03:17:16;31.52;;;18.17;;
962;SDS011;469;48.770;9.176;2022-08-19T03:19:44;36.97;;;21.35;;
962;SDS011;469;48.770;9.176;2022-08-19T03:22:11;35.97;;;20.90;;
962;SDS011;469;48.770;9.176;2022-08-19T03:24:39;36.90;;;21.35;;
962;SDS011;469;48.770;9.176;2022-08-19T03:27:06;33.67;;;19.63;;
962;SDS011;469;48.770;9.176;2022-08-19T03:29:33;35.75;;;20.98;;
962;SDS011;469;48.770;9.176;2022-08-19T03:32:03;36.92;;;20.23;;
962;SDS011;469;48.770;9.176;2022-08-19T03:34:31;33.58;;;19.65;;
962;SDS011;469;48.770;9.176;2022-08-19T03:37:02;35.38;;;20.98;;
962;SDS011;469;48.770;9.176;2022-08-19T03:39:30;32.22;;;19.75;;
962;SDS011;469;48.770;9.176;2022-08-19T03:41:57;37.30;;;20.77;;
962;SDS011;469;48.770;9.176;2022-08-19T03:44:24;34.58;;;20.85;;
962;SDS011;469;48.770;9.176;2022-08-19T03:46:54;36.63;;;21.02;;
962;SDS011;469;48.770;9.176;2022-08-19T03:49:22;39.55;;;22.05;;
962;SDS011;469;48.770;9.176;2022-08-19T03:51:49;37.90;;;22.23;;
962;SDS011;469;48.770;9.176;2022-08-19T03:54:18;39.05;;;21.30;;
962;SDS011;469;48.770;9.176;2022-08-19T03:56:48;43.70;;;21.98;;
962;SDS011;469;48.770;9.176;2022-08-19T03:59:16;40.65;;;22.58;;
962;SDS011;469;48.770;9.176;2022-08-19T04:01:43;40.70;;;23.00;;
962;SDS011;469;48.770;9.176;2022-08-19T04:04:10;38.92;;;21.05;;
962;SDS011;469;48.770;9.176;2022-08-19T04:06:38;39.08;;;21.77;;
962;SDS011;469;48.770;9.176;2022-08-19T04:09:06;38.63;;;21.60;;
962;SDS011;469;48.770;9.176;2022-08-19T04:11:38;36.72;;;23.08;;
962;SDS011;469;48.770;9.176;2022-08-19T04:14:05;45.45;;;24.38;;
962;SDS011;469;48.770;9.176;2022-08-19T04:16:33;32.67;;;20.63;;
962;SDS011;469;48.770;9.176;2022-08-19T04:19:01;36.75;;;21.92;;
962;SDS011;469;48.770;9.176;2022-08-19T04:21:28;36.13;;;21.88;;
962;SDS011;469;48.770;9.176;2022-08-19T04:23:55;39.90;;;23.65;;
962;SDS011;469;48.770;9.176;2022-08-19T04:26:25;40.88;;;22.27;;
962;SDS011;469;48.770;9.176;2022-08-19T04:28:53;35.80;;;21.63;;
962;SDS011;469;48.770;9.176;2022-08-19T04:31:22;37.20;;;21.50;;
962;SDS011;469;48.770;9.176;2022-08-19T04:33:50;36.70;;;22.20;;
962;SDS011;469;48.770;9.176;2022-08-19T04:36:19;42.10;;;23.38;;
962;SDS011;469;48.770;9.176;2022-08-19T04:38:47;38.97;;;23.33;;
962;SDS011;469;48.770;9.176;2022-08-19T04:41:14;43.22;;;24.35;;
962;SDS011;469;48.770;9.176;2022-08-19T04:44:00;40.22;;;22.92;;
962;SDS011;469;48.770;9.176;2022-08-19T04:46:27;39.75;;;22.65;;
962;SDS011;469;48.770;9.176;2022-08-19T04:48:55;43.90;;;24.45;;
962;SDS011;469;48.770;9.176;2022-08-19T04:51:22;39.13;;;22.48;;
962;SDS011;469;48.770;9.176;2022-08-19T04:53:49;36.45;;;21.90;;
962;SDS011;469;48.770;9.176;2022-08-19T04:56:17;40.45;;;24.48;;
962;SDS011;469;48.770;9.176;2022-08-19T04:58:47;41.95;;;23.35;;
962;SDS011;469;48.770;9.176;2022-08-19T05:01:19;40.80;;;23.27;;
962;SDS011;469;48.770;9.176;2022-08-19T05:03:46;39.63;;;23.77;;
962;SDS011;469;48.770;9.176;2022-08-19T05:06:14;39.22;;;23.02;;
962;SDS011;469;48.770;9.176;2022-08-19T05:08:43;38.75;;;23.95;;
962;SDS011;469;48.770;9.176;2022-08-19T05:11:11;39.35;;;22.75;;
962;SDS011;469;48.770;9.176;2022-08-19T05:13:38;40.38;;;23.27;;
962;SDS011;469;48.770;9.176;2022-08-19T05:16:06;37.92;;;22.70;;
962;SDS011;469;48.770;9.176;2022-08-19T05:18:34;38.20;;;24.08;;
962;SDS011;469;48.770;9.176;2022-08-19T05:21:20;40.60;;;23.05;;
962;SDS011;469;48.770;9.176;2022-08-19T05:24:05;41.45;;;23.85;;
962;SDS011;469;48.770;9.176;2022-08-19T05:26:34;49.70;;;24.38;;
962;SDS011;469;48.770;9.176;2022-08-19T05:29:01;42.05;;;23.95;;
962;SDS011;469;48.770;9.176;2022-08-19T05:31:28;40.60;;;24.45;;
962;SDS011;469;48.770;9.176;2022-08-19T05:33:56;46.30;;;24.60;;
962;SDS011;469;48.770;9.176;2022-08-19T05:36:24;41.05;;;23.70;;
962;SDS011;469;48.770;9.176;2022-08-19T05:38:51;38.50;;;22.90;;
962;SDS011;469;48.770;9.176;2022-08-19T05:41:19;39.22;;;21.90;;
962;SDS011;469;48.770;9.176;2022-08-19T05:43:48;45.00;;;22.05;;
962;SDS011;469;48.770;9.176;2022-08-19T05:46:17;36.85;;;21.60;;
962;SDS011;469;48.770;9.176;2022-08-19T05:48:44;40.90;;;23.30;;
962;SDS011;469;48.770;9.176;2022-08-19T05:51:12;45.95;;;23.48;;
962;SDS011;469;48.770;9.176;2022-08-19T05:53:41;37.95;;;22.70;;
962;SDS011;469;48.770;9.176;2022-08-19T05:56:11;39.17;;;22.40;;
962;SDS011;469;48.770;9.176;2022-08-19T05:58:39;37.50;;;21.75;;
962;SDS011;469;48.770;9.176;2022-08-19T06:01:09;38.45;;;23.02;;
962;SDS011;469;48.770;9.176;2022-08-19T06:03:36;38.47;;;23.23;;
962;SDS011;469;48.770;9.176;2022-08-19T06:06:04;37.42;;;22.67;;
962;SDS011;469;48.770;9.176;2022-08-19T06:08:33;37.63;;;23.30;;
962;SDS011;469;48.770;9.176;2022-08-19T06:11:15;41.05;;;22.33;;
962;SDS011;469;48.770;9.176;2022-08-19T06:13:43;37.45;;;22.05;;
962;SDS011;469;48.770;9.176;2022-08-19T06:16:12;37.33;;;21.42;;
962;SDS011;469;48.770;9.176;2022-08-19T06:18:47;36.03;;;21.50;;
962;SDS011;469;48.770;9.176;2022-08-19T06:21:16;37.15;;;21.98;;
962;SDS011;469;48.770;9.176;2022-08-19T06:23:45;38.50;;;22.65;;
962;SDS011;469;48.770;9.176;2022-08-19T06:26:12;38.50;;;22.13;;
962;SDS011;469;48.770;9.176;2022-08-19T06:28:39;38.15;;;22.92;;
962;SDS011;469;48.770;9.176;2022-08-19T06:31:08;39.03;;;22.23;;
962;SDS011;469;48.770;9.176;2022-08-19T06:33:35;40.30;;;22.23;;
962;SDS011;469;48.770;9.176;2022-08-19T06:36:04;46.92;;;24.10;;
962;SDS011;469;48.770;9.176;2022-08-19T06:38:32;39.15;;;22.63;;
962;SDS011;469;48.770;9.176;2022-08-19T06:41:02;42.53;;;23.77;;
962;SDS011;469;48.770;9.176;2022-08-19T06:43:29;39.17;;;23.50;;
962;SDS011;469;48.770;9.176;2022-08-19T06:45:56;39.85;;;22.83;;
962;SDS011;469;48.770;9.176;2022-08-19T06:48:24;38.50;;;22.75;;
962;SDS011;469;48.770;9.176;2022-08-19T06:50:51;39.97;;;24.02;;
962;SDS011;469;48.770;9.176;2022-08-19T06:53:18;40.92;;;23.95;;
962;SDS011;469;48.770;9.176;2022-08-19T06:55:45;41.95;;;22.85;;
962;SDS011;469;48.770;9.176;2022-08-19T06:58:14;42.75;;;24.60;;
962;SDS011;469;48.770;9.176;2022-08-19T07:00:41;38.10;;;23.73;;
962;SDS011;469;48.770;9.176;2022-08-19T07:03:08;41.13;;;23.25;;
962;SDS011;469;48.770;9.176;2022-08-19T07:05:39;46.53;;;22.42;;
962;SDS011;469;48.770;9.176;2022-08-19T07:08:06;39.47;;;22.15;;
962;SDS011;469;48.770;9.176;2022-08-19T07:10:34;41.47;;;22.10;;
962;SDS011;469;48.770;9.176;2022-08-19T07:13:01;40.58;;;24.00;;
962;SDS011;469;48.770;9.176;2022-08-19T07:15:29;42.17;;;23.90;;
962;SDS011;469;48.770;9.176;2022-08-19T07:17:57;45.97;;;23.38;;
962;SDS011;469;48.770;9.176;2022-08-19T07:20:24;39.55;;;22.00;;
962;SDS011;469;48.770;9.176;2022-08-19T07:22:51;37.38;;;22.10;;
962;SDS011;469;48.770;9.176;2022-08-19T07:25:18;37.83;;;22.95;;
962;SDS011;469;48.770;9.176;2022-08-19T07:27:45;39.22;;;23.05;;
962;SDS011;469;48.770;9.176;2022-08-19T07:30:15;46.53;;;23.02;;
962;SDS011;469;48.770;9.176;2022-08-19T07:32:43;36.97;;;21.40;;
962;SDS011;469;48.770;9.176;2022-08-19T07:35:10;32.38;;;20.63;;
962;SDS011;469;48.770;9.176;2022-08-19T07:37:38;31.67;;;19.83;;
962;SDS011;469;48.770;9.176;2022-08-19T07:40:09;31.20;;;20.35;;
962;SDS011;469;48.770;9.176;2022-08-19T07:42:36;34.88;;;20.10;;
962;SDS011;469;48.770;9.176;2022-08-19T07:45:04;31.17;;;20.25;;
962;SDS011;469;48.770;9.176;2022-08-19T07:47:31;33.05;;;20.55;;
962;SDS011;469;48.770;9.176;2022-08-19T07:50:00;40.15;;;20.85;;
962;SDS011;469;48.770;9.176;2022-08-19T07:52:29;32.33;;;19.85;;
962;SDS011;469;48.770;9.176;2022-08-19T07:54:56;36.50;;;20.50;;
962;SDS011;469;48.770;9.176;2022-08-19T07:57:24;38.10;;;20.80;;
962;SDS011;469;48.770;9.176;2022-08-19T07:59:51;32.03;;;20.90;;
962;SDS011;469;48.770;9.176;2022-08-19T08:02:19;36.50;;;20.90;;
962;SDS011;469;48.770;9.176;2022-08-19T08:04:46;30.30;;;19.30;;
962;SDS011;469;48.770;9.176;2022-08-19T08:07:32;42.20;;;20.13;;
962;SDS011;469;48.770;9.176;2022-08-19T08:10:17;31.08;;;18.50;;
962;SDS011;469;48.770;9.176;2022-08-19T08:12:44;37.42;;;20.25;;
962;SDS011;469;48.770;9.176;2022-08-19T08:15:13;31.67;;;19.45;;
962;SDS011;469;48.770;9.176;2022-08-19T08:17:41;32.40;;;20.73;;
962;SDS011;469;48.770;9.176;2022-08-19T08:20:09;36.63;;;21.23;;
962;SDS011;469;48.770;9.176;2022-08-19T08:22:42;30.88;;;19.02;;
962;SDS011;469;48.770;9.176;2022-08-19T08:25:27;35.38;;;19.10;;
962;SDS011;469;48.770;9.176;2022-08-19T08:27:54;40.45;;;20.40;;
962;SDS011;469;48.770;9.176;2022-08-19T08:30:25;33.90;;;21.35;;
962;SDS011;469;48.770;9.176;2022-08-19T08:32:53;35.67;;;20.25;;
962;SDS011;469;48.770;9.176;2022-08-19T08:35:21;34.10;;;19.73;;
962;SDS011;469;48.770;9.176;2022-08-19T08:37:51;33.50;;;19.95;;
962;SDS011;469;48.770;9.176;2022-08-19T08:40:20;42.38;;;22.10;;
962;SDS011;469;48.770;9.176;2022-08-19T08:42:49;34.35;;;20.85;;
962;SDS011;469;48.770;9.176;2022-08-19T08:45:18;36.83;;;20.40;;
962;SDS011;469;48.770;9.176;2022-08-19T08:47:46;33.15;;;20.38;;
962;SDS011;469;48.770;9.176;2022-08-19T08:50:15;33.95;;;20.02;;
962;SDS011;469;48.770;9.176;2022-08-19T08:52:45;36.50;;;21.05;;
962;SDS011;469;48.770;9.176;2022-08-19T08:55:16;36.78;;;21.33;;
962;SDS011;469;48.770;9.176;2022-08-19T08:57:47;34.55;;;20.15;;
962;SDS011;469;48.770;9.176;2022-08-19T09:00:21;39.08;;;20.67;;
962;SDS011;469;48.770;9.176;2022-08-19T09:02:51;38.10;;;20.58;;
962;SDS011;469;48.770;9.176;2022-08-19T09:05:19;34.90;;;19.92;;
962;SDS011;469;48.770;9.176;2022-08-19T09:07:57;35.65;;;20.23;;
962;SDS011;469;48.770;9.176;2022-08-19T09:10:29;32.15;;;18.65;;
962;SDS011;469;48.770;9.176;2022-08-19T09:13:00;34.30;;;19.30;;
962;SDS011;469;48.770;9.176;2022-08-19T09:15:32;33.40;;;20.33;;
962;SDS011;469;48.770;9.176;2022-08-19T09:18:01;32.45;;;18.73;;
962;SDS011;469;48.770;9.176;2022-08-19T09:20:32;30.42;;;19.17;;
962;SDS011;469;48.770;9.176;2022-08-19T09:22:59;29.73;;;19.02;;
962;SDS011;469;48.770;9.176;2022-08-19T09:25:26;26.50;;;17.90;;
962;SDS011;469;48.770;9.176;2022-08-19T09:27:55;29.85;;;17.95;;
962;SDS011;469;48.770;9.176;2022-08-19T09:30:28;34.55;;;19.90;;
962;SDS011;469;48.770;9.176;2022-08-19T09:32:55;29.08;;;17.75;;
962;SDS011;469;48.770;9.176;2022-08-19T09:35:23;24.20;;;16.90;;
962;SDS011;469;48.770;9.176;2022-08-19T09:37:51;27.88;;;16.70;;
962;SDS011;469;48.770;9.176;2022-08-19T09:40:18;31.92;;;18.67;;
962;SDS011;469;48.770;9.176;2022-08-19T09:42:46;33.25;;;17.75;;
962;SDS011;469;48.770;9.176;2022-08-19T09:45:15;35.38;;;18.98;;
962;SDS011;469;48.770;9.176;2022-08-19T09:47:45;28.52;;;17.08;;
962;SDS011;469;48.770;9.176;2022-08-19T09:50:12;31.27;;;16.85;;
962;SDS011;469;48.770;9.176;2022-08-19T09:52:39;29.13;;;15.60;;
962;SDS011;469;48.770;9.176;2022-08-19T09:55:08;23.60;;;15.15;;
962;SDS011;469;48.770;9.176;2022-08-19T09:57:36;25.02;;;15.18;;
962;SDS011;469;48.770;9.176;2022-08-19T10:00:05;23.23;;;15.80;;
962;SDS011;469;48.770;9.176;2022-08-19T10:02:34;25.33;;;15.05;;
962;SDS011;469;48.770;9.176;2022-08-19T10:07:30;25.48;;;14.82;;
962;SDS011;469;48.770;9.176;2022-08-19T10:09:57;23.15;;;14.20;;
962;SDS011;469;48.770;9.176;2022-08-19T10:12:24;22.83;;;13.90;;
962;SDS011;469;48.770;9.176;2022-08-19T10:14:51;26.30;;;14.50;;
962;SDS011;469;48.770;9.176;2022-08-19T10:17:19;32.15;;;14.55;;
962;SDS011;469;48.770;9.176;2022-08-19T10:19:47;21.25;;;13.25;;
962;SDS011;469;48.770;9.176;2022-08-19T10:22:14;22.42;;;13.23;;
962;SDS011;469;48.770;9.176;2022-08-19T10:24:41;20.63;;;14.15;;
962;SDS011;469;48.770;9.176;2022-08-19T10:27:09;24.77;;;14.07;;
962;SDS011;469;48.770;9.176;2022-08-19T10:29:37;23.50;;;12.68;;
962;SDS011;469;48.770;9.176;2022-08-19T10:32:05;23.52;;;13.70;;
962;SDS011;469;48.770;9.176;2022-08-19T10:34:33;21.60;;;13.18;;
962;SDS011;469;48.770;9.176;2022-08-19T10:37:02;20.50;;;12.50;;
962;SDS011;469;48.770;9.176;2022-08-19T10:39:30;21.50;;;12.27;;
962;SDS011;469;48.770;9.176;2022-08-19T10:41:58;21.67;;;14.00;;
962;SDS011;469;48.770;9.176;2022-08-19T10:44:25;25.48;;;13.40;;
962;SDS011;469;48.770;9.176;2022-08-19T10:46:55;23.15;;;12.95;;
962;SDS011;469;48.770;9.176;2022-08-19T10:49:23;20.55;;;11.73;;
962;SDS011;469;48.770;9.176;2022-08-19T10:51:50;19.30;;;11.80;;
962;SDS011;469;48.770;9.176;2022-08-19T10:54:36;19.27;;;11.63;;
962;SDS011;469;48.770;9.176;2022-08-19T10:57:30;18.25;;;11.45;;
962;SDS011;469;48.770;9.176;2022-08-19T10:59:57;21.15;;;11.25;;
962;SDS011;469;48.770;9.176;2022-08-19T11:02:24;14.45;;;9.73;;
962;SDS011;469;48.770;9.176;2022-08-19T11:04:51;19.58;;;11.27;;
962;SDS011;469;48.770;9.176;2022-08-19T11:07:18;18.48;;;10.25;;
962;SDS011;469;48.770;9.176;2022-08-19T11:09:47;14.00;;;9.80;;
962;SDS011;469;48.770;9.176;2022-08-19T11:12:14;19.30;;;10.55;;
962;SDS011;469;48.770;9.176;2022-08-19T11:14:42;13.55;;;9.68;;
962;SDS011;469;48.770;9.176;2022-08-19T11:17:09;15.65;;;11.05;;
962;SDS011;469;48.770;9.176;2022-08-19T11:19:38;23.92;;;9.60;;
962;SDS011;469;48.770;9.176;2022-08-19T11:22:06;18.42;;;10.30;;
962;SDS011;469;48.770;9.176;2022-08-19T11:24:34;15.25;;;9.55;;
962;SDS011;469;48.770;9.176;2022-08-19T11:27:05;16.63;;;9.88;;
962;SDS011;469;48.770;9.176;2022-08-19T11:29:33;16.00;;;9.05;;
962;SDS011;469;48.770;9.176;2022-08-19T11:32:02;19.02;;;9.75;;
962;SDS011;469;48.770;9.176;2022-08-19T11:34:30;15.40;;;9.70;;
962;SDS011;469;48.770;9.176;2022-08-19T11:36:57;16.95;;;9.57;;
962;SDS011;469;48.770;9.176;2022-08-19T11:39:25;16.73;;;8.60;;
962;SDS011;469;48.770;9.176;2022-08-19T11:41:52;15.43;;;9.43;;
962;SDS011;469;48.770;9.176;2022-08-19T11:44:21;21.45;;;9.20;;
962;SDS011;469;48.770;9.176;2022-08-19T11:46:48;16.27;;;9.23;;
962;SDS011;469;48.770;9.176;2022-08-19T11:49:16;26.10;;;11.90;;
962;SDS011;469;48.770;9.176;2022-08-19T11:51:45;16.00;;;10.13;;
962;SDS011;469;48.770;9.176;2022-08-19T11:54:12;13.77;;;9.18;;
962;SDS011;469;48.770;9.176;2022-08-19T11:56:40;18.77;;;9.00;;
962;SDS011;469;48.770;9.176;2022-08-19T11:59:08;14.63;;;9.50;;
962;SDS011;469;48.770;9.176;2022-08-19T12:01:37;19.10;;;9.75;;
962;SDS011;469;48.770;9.176;2022-08-19T12:04:05;11.82;;;8.45;;
962;SDS011;469;48.770;9.176;2022-08-19T12:06:33;14.18;;;8.52;;
962;SDS011;469;48.770;9.176;2022-08-19T12:09:01;13.85;;;8.50;;
962;SDS011;469;48.770;9.176;2022-08-19T12:11:29;14.75;;;9.30;;
962;SDS011;469;48.770;9.176;2022-08-19T12:13:56;18.02;;;8.93;;
962;SDS011;469;48.770;9.176;2022-08-19T12:16:24;14.15;;;8.93;;
962;SDS011;469;48.770;9.176;2022-08-19T12:18:53;13.90;;;9.02;;
962;SDS011;469;48.770;9.176;2022-08-19T12:21:21;20.65;;;9.30;;
962;SDS011;469;48.770;9.176;2022-08-19T12:23:50;12.52;;;8.70;;
962;SDS011;469;48.770;9.176;2022-08-19T12:26:18;25.08;;;9.40;;
962;SDS011;469;48.770;9.176;2022-08-19T12:28:45;16.67;;;9.02;;
962;SDS011;469;48.770;9.176;2022-08-19T12:31:13;13.43;;;9.00;;
962;SDS011;469;48.770;9.176;2022-08-19T12:33:40;15.43;;;9.95;;
962;SDS011;469;48.770;9.176;2022-08-19T12:36:10;21.85;;;10.25;;
962;SDS011;469;48.770;9.176;2022-08-19T12:38:37;18.45;;;10.60;;
962;SDS011;469;48.770;9.176;2022-08-19T12:41:05;18.83;;;10.13;;
962;SDS011;469;48.770;9.176;2022-08-19T12:43:33;14.15;;;9.40;;
962;SDS011;469;48.770;9.176;2022-08-19T12:46:00;15.90;;;8.93;;
962;SDS011;469;48.770;9.176;2022-08-19T12:48:27;15.45;;;10.20;;
962;SDS011;469;48.770;9.176;2022-08-19T12:50:54;16.88;;;10.52;;
962;SDS011;469;48.770;9.176;2022-08-19T12:53:23;19.30;;;9.30;;
962;SDS011;469;48.770;9.176;2022-08-19T12:55:54;16.60;;;10.63;;
962;SDS011;469;48.770;9.176;2022-08-19T12:58:22;16.27;;;9.32;;
962;SDS011;469;48.770;9.176;2022-08-19T13:00:49;25.13;;;10.60;;
962;SDS011;469;48.770;9.176;2022-08-19T13:03:16;12.65;;;8.80;;
962;SDS011;469;48.770;9.176;2022-08-19T13:05:43;18.52;;;9.48;;
962;SDS011;469;48.770;9.176;2022-08-19T13:08:10;15.60;;;9.50;;
962;SDS011;469;48.770;9.176;2022-08-19T13:10:39;19.08;;;10.20;;
962;SDS011;469;48.770;9.176;2022-08-19T13:13:07;21.20;;;10.63;;
962;SDS011;469;48.770;9.176;2022-08-19T13:15:35;21.92;;;10.23;;
962;SDS011;469;48.770;9.176;2022-08-19T13:18:04;16.27;;;9.95;;
962;SDS011;469;48.770;9.176;2022-08-19T13:20:31;18.73;;;11.48;;
962;SDS011;469;48.770;9.176;2022-08-19T13:22:58;19.55;;;10.73;;
962;SDS011;469;48.770;9.176;2022-08-19T13:25:25;18.48;;;10.95;;
962;SDS011;469;48.770;9.176;2022-08-19T13:27:54;17.75;;;11.85;;
962;SDS011;469;48.770;9.176;2022-08-19T13:30:21;18.88;;;13.60;;
962;SDS011;469;48.770;9.176;2022-08-19T13:33:06;20.90;;;13.45;;
962;SDS011;469;48.770;9.176;2022-08-19T13:35:36;28.00;;;15.45;;
962;SDS011;469;48.770;9.176;2022-08-19T13:38:03;26.33;;;16.05;;
962;SDS011;469;48.770;9.176;2022-08-19T13:40:31;25.40;;;15.95;;
962;SDS011;469;48.770;9.176;2022-08-19T13:43:00;25.90;;;16.55;;
962;SDS011;469;48.770;9.176;2022-08-19T13:45:28;30.45;;;17.25;;
962;SDS011;469;48.770;9.176;2022-08-19T13:47:58;26.48;;;17.75;;
962;SDS011;469;48.770;9.176;2022-08-19T13:50:26;28.75;;;17.17;;
962;SDS011;469;48.770;9.176;2022-08-19T13:52:54;31.08;;;18.75;;
962;SDS011;469;48.770;9.176;2022-08-19T13:55:22;32.45;;;18.60;;
962;SDS011;469;48.770;9.176;2022-08-19T13:57:49;28.98;;;18.52;;
962;SDS011;469;48.770;9.176;2022-08-19T14:00:19;30.00;;;18.67;;
962;SDS011;469;48.770;9.176;2022-08-19T14:02:50;32.10;;;20.95;;
962;SDS011;469;48.770;9.176;2022-08-19T14:05:17;46.13;;;27.90;;
962;SDS011;469;48.770;9.176;2022-08-19T14:07:45;37.28;;;23.10;;
962;SDS011;469;48.770;9.176;2022-08-19T14:10:15;32.58;;;20.60;;
962;SDS011;469;48.770;9.176;2022-08-19T14:12:42;39.85;;;23.67;;
962;SDS011;469;48.770;9.176;2022-08-19T14:15:10;44.55;;;24.23;;
962;SDS011;469;48.770;9.176;2022-08-19T14:17:39;41.20;;;25.65;;
962;SDS011;469;48.770;9.176;2022-08-19T14:20:08;52.35;;;29.00;;
962;SDS011;469;48.770;9.176;2022-08-19T14:22:36;33.33;;;22.55;;
962;SDS011;469;48.770;9.176;2022-08-19T14:25:04;38.65;;;24.50;;
962;SDS011;469;48.770;9.176;2022-08-19T14:27:32;34.80;;;22.02;;
962;SDS011;469;48.770;9.176;2022-08-19T14:29:59;34.35;;;21.60;;
962;SDS011;469;48.770;9.176;2022-08-19T14:32:26;43.17;;;22.25;;
962;SDS011;469;48.770;9.176;2022-08-19T14:34:55;35.33;;;21.42;;
962;SDS011;469;48.770;9.176;2022-08-19T14:37:22;32.50;;;20.38;;
962;SDS011;469;48.770;9.176;2022-08-19T14:39:50;33.97;;;20.35;;
962;SDS011;469;48.770;9.176;2022-08-19T14:42:19;31.85;;;18.85;;
962;SDS011;469;48.770;9.176;2022-08-19T14:44:46;30.80;;;18.70;;
962;SDS011;469;48.770;9.176;2022-08-19T14:47:13;30.02;;;19.80;;
962;SDS011;469;48.770;9.176;2022-08-19T14:49:41;34.88;;;20.35;;
962;SDS011;469;48.770;9.176;2022-08-19T14:52:10;33.47;;;18.52;;
962;SDS011;469;48.770;9.176;2022-08-19T14:54:37;28.67;;;18.20;;
962;SDS011;469;48.770;9.176;2022-08-19T14:57:04;27.67;;;18.48;;
962;SDS011;469;48.770;9.176;2022-08-19T14:59:31;35.92;;;19.40;;
962;SDS011;469;48.770;9.176;2022-08-19T15:01:59;29.38;;;19.50;;
962;SDS011;469;48.770;9.176;2022-08-19T15:04:26;27.17;;;17.52;;
962;SDS011;469;48.770;9.176;2022-08-19T15:06:53;38.22;;;18.35;;
962;SDS011;469;48.770;9.176;2022-08-19T15:09:21;30.42;;;17.77;;
962;SDS011;469;48.770;9.176;2022-08-19T15:11:48;25.45;;;16.27;;
962;SDS011;469;48.770;9.176;2022-08-19T15:14:16;21.05;;;13.68;;
962;SDS011;469;48.770;9.176;2022-08-19T15:16:46;21.25;;;15.35;;
962;SDS011;469;48.770;9.176;2022-08-19T15:19:13;22.42;;;14.80;;
962;SDS011;469;48.770;9.176;2022-08-19T15:21:40;23.60;;;14.82;;
962;SDS011;469;48.770;9.176;2022-08-19T15:24:07;21.75;;;13.85;;
962;SDS011;469;48.770;9.176;2022-08-19T15:26:35;23.58;;;14.18;;
962;SDS011;469;48.770;9.176;2022-08-19T15:29:03;21.90;;;13.13;;